sensor_id;sensor_type;location;lat;lon;timestamp;temperature;humidity
66119;DHT22;52912;48.564;9.302;2023-04-06T00:00:27;1.93;73.91
66119;DHT22;52912;48.564;9.302;2023-04-06T00:02:53;1.89;73.94
66119;DHT22;52912;48.564;9.302;2023-04-06T00:05:21;1.73;74.24
66119;DHT22;52912;48.564;9.302;2023-04-06T00:07:46;1.52;74.73
66119;DHT22;52912;48.564;9.302;2023-04-06T00:10:12;1.48;75.04
66119;DHT22;52912;48.564;9.302;2023-04-06T00:12:37;1.59;75.05
66119;DHT22;52912;48.564;9.302;2023-04-06T00:15:03;1.65;74.68
66119;DHT22;52912;48.564;9.302;2023-04-06T00:17:29;1.79;73.88
66119;DHT22;52912;48.564;9.302;2023-04-06T00:19:54;1.90;73.63
66119;DHT22;52912;48.564;9.302;2023-04-06T00:22:21;1.97;73.63
66119;DHT22;52912;48.564;9.302;2023-04-06T00:24:47;1.78;74.10
66119;DHT22;52912;48.564;9.302;2023-04-06T00:27:12;1.62;74.88
66119;DHT22;52912;48.564;9.302;2023-04-06T00:29:39;1.52;75.29
66119;DHT22;52912;48.564;9.302;2023-04-06T00:32:05;1.43;75.26
66119;DHT22;52912;48.564;9.302;2023-04-06T00:34:30;1.47;75.26
66119;DHT22;52912;48.564;9.302;2023-04-06T00:36:56;1.45;75.42
66119;DHT22;52912;48.564;9.302;2023-04-06T00:39:23;1.55;75.41
66119;DHT22;52912;48.564;9.302;2023-04-06T00:41:51;1.58;74.84
66119;DHT22;52912;48.564;9.302;2023-04-06T00:44:17;1.40;75.66
66119;DHT22;52912;48.564;9.302;2023-04-06T00:46:42;1.35;75.86
66119;DHT22;52912;48.564;9.302;2023-04-06T00:49:08;1.40;75.95
66119;DHT22;52912;48.564;9.302;2023-04-06T00:51:34;1.40;75.90
66119;DHT22;52912;48.564;9.302;2023-04-06T00:53:59;1.30;75.62
66119;DHT22;52912;48.564;9.302;2023-04-06T00:56:26;1.28;75.48
66119;DHT22;52912;48.564;9.302;2023-04-06T00:58:52;1.34;75.64
66119;DHT22;52912;48.564;9.302;2023-04-06T01:01:17;1.31;75.86
66119;DHT22;52912;48.564;9.302;2023-04-06T01:03:43;1.41;75.10
66119;DHT22;52912;48.564;9.302;2023-04-06T01:06:08;1.35;75.15
66119;DHT22;52912;48.564;9.302;2023-04-06T01:08:34;1.37;74.43
66119;DHT22;52912;48.564;9.302;2023-04-06T01:11:00;1.40;74.20
66119;DHT22;52912;48.564;9.302;2023-04-06T01:13:27;1.48;74.38
66119;DHT22;52912;48.564;9.302;2023-04-06T01:15:52;1.48;74.52
66119;DHT22;52912;48.564;9.302;2023-04-06T01:18:18;1.38;74.64
66119;DHT22;52912;48.564;9.302;2023-04-06T01:20:43;1.38;74.50
66119;DHT22;52912;48.564;9.302;2023-04-06T01:23:10;1.43;74.70
66119;DHT22;52912;48.564;9.302;2023-04-06T01:25:36;1.31;75.28
66119;DHT22;52912;48.564;9.302;2023-04-06T01:28:02;1.27;75.40
66119;DHT22;52912;48.564;9.302;2023-04-06T01:30:27;1.38;75.20
66119;DHT22;52912;48.564;9.302;2023-04-06T01:32:53;1.31;75.47
66119;DHT22;52912;48.564;9.302;2023-04-06T01:35:19;1.33;75.11
66119;DHT22;52912;48.564;9.302;2023-04-06T01:37:44;1.13;75.79
66119;DHT22;52912;48.564;9.302;2023-04-06T01:40:12;0.96;76.40
66119;DHT22;52912;48.564;9.302;2023-04-06T01:42:37;1.06;76.41
66119;DHT22;52912;48.564;9.302;2023-04-06T01:45:03;1.20;75.75
66119;DHT22;52912;48.564;9.302;2023-04-06T01:47:29;1.07;75.79
66119;DHT22;52912;48.564;9.302;2023-04-06T01:49:54;1.06;76.13
66119;DHT22;52912;48.564;9.302;2023-04-06T01:52:20;1.00;75.92
66119;DHT22;52912;48.564;9.302;2023-04-06T01:54:46;0.89;76.77
66119;DHT22;52912;48.564;9.302;2023-04-06T01:57:12;0.82;77.10
66119;DHT22;52912;48.564;9.302;2023-04-06T01:59:38;0.81;77.04
66119;DHT22;52912;48.564;9.302;2023-04-06T02:02:03;0.78;77.05
66119;DHT22;52912;48.564;9.302;2023-04-06T02:04:29;0.73;77.28
66119;DHT22;52912;48.564;9.302;2023-04-06T02:06:54;0.83;76.93
66119;DHT22;52912;48.564;9.302;2023-04-06T02:09:20;0.88;76.95
66119;DHT22;52912;48.564;9.302;2023-04-06T02:11:45;0.92;76.76
66119;DHT22;52912;48.564;9.302;2023-04-06T02:14:12;0.90;76.32
66119;DHT22;52912;48.564;9.302;2023-04-06T02:16:38;0.88;76.57
66119;DHT22;52912;48.564;9.302;2023-04-06T02:19:03;0.76;76.65
66119;DHT22;52912;48.564;9.302;2023-04-06T02:21:29;0.69;76.86
66119;DHT22;52912;48.564;9.302;2023-04-06T02:23:54;0.58;77.34
66119;DHT22;52912;48.564;9.302;2023-04-06T02:26:20;0.45;77.64
66119;DHT22;52912;48.564;9.302;2023-04-06T02:28:45;0.47;77.43
66119;DHT22;52912;48.564;9.302;2023-04-06T02:31:12;0.51;77.24
66119;DHT22;52912;48.564;9.302;2023-04-06T02:33:38;0.47;76.92
66119;DHT22;52912;48.564;9.302;2023-04-06T02:36:03;0.44;77.01
66119;DHT22;52912;48.564;9.302;2023-04-06T02:38:29;0.48;76.94
66119;DHT22;52912;48.564;9.302;2023-04-06T02:40:54;0.40;77.70
66119;DHT22;52912;48.564;9.302;2023-04-06T02:43:20;0.45;77.36
66119;DHT22;52912;48.564;9.302;2023-04-06T02:45:45;0.48;76.91
66119;DHT22;52912;48.564;9.302;2023-04-06T02:48:13;0.53;77.42
66119;DHT22;52912;48.564;9.302;2023-04-06T02:50:38;0.30;77.90
66119;DHT22;52912;48.564;9.302;2023-04-06T02:53:04;0.31;77.77
66119;DHT22;52912;48.564;9.302;2023-04-06T02:55:29;0.23;78.07
66119;DHT22;52912;48.564;9.302;2023-04-06T02:57:55;0.24;77.76
66119;DHT22;52912;48.564;9.302;2023-04-06T03:00:20;0.17;78.23
66119;DHT22;52912;48.564;9.302;2023-04-06T03:02:46;0.20;78.01
66119;DHT22;52912;48.564;9.302;2023-04-06T03:05:13;0.21;77.60
66119;DHT22;52912;48.564;9.302;2023-04-06T03:07:38;0.23;77.56
66119;DHT22;52912;48.564;9.302;2023-04-06T03:10:05;0.16;77.91
66119;DHT22;52912;48.564;9.302;2023-04-06T03:12:30;0.16;77.76
66119;DHT22;52912;48.564;9.302;2023-04-06T03:14:56;0.07;78.28
66119;DHT22;52912;48.564;9.302;2023-04-06T03:17:21;0.13;78.11
66119;DHT22;52912;48.564;9.302;2023-04-06T03:19:47;0.07;78.19
66119;DHT22;52912;48.564;9.302;2023-04-06T03:22:14;0.11;78.02
66119;DHT22;52912;48.564;9.302;2023-04-06T03:24:39;0.10;77.89
66119;DHT22;52912;48.564;9.302;2023-04-06T03:27:05;0.19;77.55
66119;DHT22;52912;48.564;9.302;2023-04-06T03:29:30;0.24;77.61
66119;DHT22;52912;48.564;9.302;2023-04-06T03:31:56;0.34;76.87
66119;DHT22;52912;48.564;9.302;2023-04-06T03:34:21;0.20;77.51
66119;DHT22;52912;48.564;9.302;2023-04-06T03:36:47;0.10;78.26
66119;DHT22;52912;48.564;9.302;2023-04-06T03:39:13;-0.02;78.68
66119;DHT22;52912;48.564;9.302;2023-04-06T03:41:39;0.02;78.32
66119;DHT22;52912;48.564;9.302;2023-04-06T03:44:05;-0.14;78.40
66119;DHT22;52912;48.564;9.302;2023-04-06T03:46:30;-0.05;77.85
66119;DHT22;52912;48.564;9.302;2023-04-06T03:48:56;-0.08;77.95
66119;DHT22;52912;48.564;9.302;2023-04-06T03:51:21;-0.07;78.17
66119;DHT22;52912;48.564;9.302;2023-04-06T03:53:47;-0.09;78.36
66119;DHT22;52912;48.564;9.302;2023-04-06T03:56:14;-0.08;78.22
66119;DHT22;52912;48.564;9.302;2023-04-06T03:58:39;-0.01;78.34
66119;DHT22;52912;48.564;9.302;2023-04-06T04:01:05;-0.01;78.20
66119;DHT22;52912;48.564;9.302;2023-04-06T04:03:30;0.06;77.93
66119;DHT22;52912;48.564;9.302;2023-04-06T04:05:56;0.09;77.63
66119;DHT22;52912;48.564;9.302;2023-04-06T04:08:21;-0.01;78.14
66119;DHT22;52912;48.564;9.302;2023-04-06T04:10:47;0.05;78.02
66119;DHT22;52912;48.564;9.302;2023-04-06T04:13:14;-0.05;78.56
66119;DHT22;52912;48.564;9.302;2023-04-06T04:15:39;-0.05;78.46
66119;DHT22;52912;48.564;9.302;2023-04-06T04:18:05;-0.17;78.86
66119;DHT22;52912;48.564;9.302;2023-04-06T04:20:30;-0.05;78.69
66119;DHT22;52912;48.564;9.302;2023-04-06T04:22:56;0.00;78.93
66119;DHT22;52912;48.564;9.302;2023-04-06T04:25:22;-0.05;79.18
66119;DHT22;52912;48.564;9.302;2023-04-06T04:27:48;0.02;79.07
66119;DHT22;52912;48.564;9.302;2023-04-06T04:30:15;-0.07;79.30
66119;DHT22;52912;48.564;9.302;2023-04-06T04:32:40;0.02;79.20
66119;DHT22;52912;48.564;9.302;2023-04-06T04:35:07;0.06;79.03
66119;DHT22;52912;48.564;9.302;2023-04-06T04:37:32;-0.04;79.38
66119;DHT22;52912;48.564;9.302;2023-04-06T04:39:58;-0.19;79.70
66119;DHT22;52912;48.564;9.302;2023-04-06T04:42:23;-0.09;79.74
66119;DHT22;52912;48.564;9.302;2023-04-06T04:44:49;-0.11;79.81
66119;DHT22;52912;48.564;9.302;2023-04-06T04:47:16;-0.12;79.55
66119;DHT22;52912;48.564;9.302;2023-04-06T04:49:41;-0.18;79.79
66119;DHT22;52912;48.564;9.302;2023-04-06T04:52:07;-0.17;80.10
66119;DHT22;52912;48.564;9.302;2023-04-06T04:54:32;-0.15;79.91
66119;DHT22;52912;48.564;9.302;2023-04-06T04:56:58;-0.21;80.07
66119;DHT22;52912;48.564;9.302;2023-04-06T04:59:24;-0.25;80.41
66119;DHT22;52912;48.564;9.302;2023-04-06T05:01:49;-0.11;80.09
66119;DHT22;52912;48.564;9.302;2023-04-06T05:04:16;-0.05;79.94
66119;DHT22;52912;48.564;9.302;2023-04-06T05:06:42;-0.02;80.04
66119;DHT22;52912;48.564;9.302;2023-04-06T05:09:07;-0.02;79.79
66119;DHT22;52912;48.564;9.302;2023-04-06T05:11:33;0.07;79.80
66119;DHT22;52912;48.564;9.302;2023-04-06T05:13:59;0.05;79.27
66119;DHT22;52912;48.564;9.302;2023-04-06T05:16:24;0.13;79.48
66119;DHT22;52912;48.564;9.302;2023-04-06T05:18:50;0.17;79.46
66119;DHT22;52912;48.564;9.302;2023-04-06T05:21:17;0.11;79.73
66119;DHT22;52912;48.564;9.302;2023-04-06T05:23:42;0.20;79.38
66119;DHT22;52912;48.564;9.302;2023-04-06T05:26:08;0.26;79.21
66119;DHT22;52912;48.564;9.302;2023-04-06T05:28:33;0.34;78.91
66119;DHT22;52912;48.564;9.302;2023-04-06T05:30:59;0.41;78.71
66119;DHT22;52912;48.564;9.302;2023-04-06T05:33:25;0.51;78.50
66119;DHT22;52912;48.564;9.302;2023-04-06T05:35:50;0.51;78.57
66119;DHT22;52912;48.564;9.302;2023-04-06T05:38:17;0.58;78.29
66119;DHT22;52912;48.564;9.302;2023-04-06T05:40:43;0.64;78.24
66119;DHT22;52912;48.564;9.302;2023-04-06T05:43:08;0.71;77.93
66119;DHT22;52912;48.564;9.302;2023-04-06T05:45:34;0.89;77.73
66119;DHT22;52912;48.564;9.302;2023-04-06T05:47:59;0.92;77.11
66119;DHT22;52912;48.564;9.302;2023-04-06T05:50:25;1.00;76.96
66119;DHT22;52912;48.564;9.302;2023-04-06T05:52:50;1.17;76.47
66119;DHT22;52912;48.564;9.302;2023-04-06T05:55:17;1.22;76.36
66119;DHT22;52912;48.564;9.302;2023-04-06T05:57:43;1.28;76.32
66119;DHT22;52912;48.564;9.302;2023-04-06T06:00:09;1.37;76.20
66119;DHT22;52912;48.564;9.302;2023-04-06T06:02:35;1.55;75.62
66119;DHT22;52912;48.564;9.302;2023-04-06T06:05:01;1.82;74.41
66119;DHT22;52912;48.564;9.302;2023-04-06T06:07:26;1.90;74.29
66119;DHT22;52912;48.564;9.302;2023-04-06T06:09:52;2.10;74.16
66119;DHT22;52912;48.564;9.302;2023-04-06T06:12:19;2.21;73.54
66119;DHT22;52912;48.564;9.302;2023-04-06T06:14:44;2.38;73.20
66119;DHT22;52912;48.564;9.302;2023-04-06T06:17:10;2.51;72.85
66119;DHT22;52912;48.564;9.302;2023-04-06T06:19:35;2.68;72.14
66119;DHT22;52912;48.564;9.302;2023-04-06T06:22:01;2.61;72.18
66119;DHT22;52912;48.564;9.302;2023-04-06T06:24:26;2.73;71.67
66119;DHT22;52912;48.564;9.302;2023-04-06T06:26:52;2.80;71.38
66119;DHT22;52912;48.564;9.302;2023-04-06T06:29:19;2.89;71.17
66119;DHT22;52912;48.564;9.302;2023-04-06T06:31:44;2.97;70.20
66119;DHT22;52912;48.564;9.302;2023-04-06T06:34:10;2.99;70.38
66119;DHT22;52912;48.564;9.302;2023-04-06T06:36:35;3.03;69.97
66119;DHT22;52912;48.564;9.302;2023-04-06T06:39:01;3.24;69.77
66119;DHT22;52912;48.564;9.302;2023-04-06T06:41:26;3.25;69.65
66119;DHT22;52912;48.564;9.302;2023-04-06T06:43:52;3.28;68.88
66119;DHT22;52912;48.564;9.302;2023-04-06T06:46:19;3.35;68.78
66119;DHT22;52912;48.564;9.302;2023-04-06T06:48:45;3.45;68.73
66119;DHT22;52912;48.564;9.302;2023-04-06T06:51:10;3.58;68.22
66119;DHT22;52912;48.564;9.302;2023-04-06T06:53:36;3.65;67.93
66119;DHT22;52912;48.564;9.302;2023-04-06T06:56:01;3.83;67.99
66119;DHT22;52912;48.564;9.302;2023-04-06T06:58:27;3.85;67.66
66119;DHT22;52912;48.564;9.302;2023-04-06T07:00:55;3.80;67.73
66119;DHT22;52912;48.564;9.302;2023-04-06T07:03:22;3.90;67.76
66119;DHT22;52912;48.564;9.302;2023-04-06T07:05:48;4.06;67.44
66119;DHT22;52912;48.564;9.302;2023-04-06T07:08:14;4.18;67.08
66119;DHT22;52912;48.564;9.302;2023-04-06T07:10:40;4.20;66.36
66119;DHT22;52912;48.564;9.302;2023-04-06T07:13:05;4.32;65.89
66119;DHT22;52912;48.564;9.302;2023-04-06T07:15:31;4.52;65.91
66119;DHT22;52912;48.564;9.302;2023-04-06T07:17:56;4.63;64.69
66119;DHT22;52912;48.564;9.302;2023-04-06T07:20:23;4.84;64.76
66119;DHT22;52912;48.564;9.302;2023-04-06T07:22:48;4.90;64.77
66119;DHT22;52912;48.564;9.302;2023-04-06T07:25:14;4.94;64.61
66119;DHT22;52912;48.564;9.302;2023-04-06T07:27:40;4.93;63.80
66119;DHT22;52912;48.564;9.302;2023-04-06T07:30:06;5.14;64.60
66119;DHT22;52912;48.564;9.302;2023-04-06T07:32:32;5.43;63.31
66119;DHT22;52912;48.564;9.302;2023-04-06T07:34:58;5.53;63.79
66119;DHT22;52912;48.564;9.302;2023-04-06T07:37:25;5.66;63.20
66119;DHT22;52912;48.564;9.302;2023-04-06T07:39:50;5.76;62.60
66119;DHT22;52912;48.564;9.302;2023-04-06T07:42:16;5.83;62.53
66119;DHT22;52912;48.564;9.302;2023-04-06T07:44:41;5.91;63.17
66119;DHT22;52912;48.564;9.302;2023-04-06T07:47:07;6.12;61.70
66119;DHT22;52912;48.564;9.302;2023-04-06T07:49:32;6.29;61.10
66119;DHT22;52912;48.564;9.302;2023-04-06T07:51:58;6.49;61.46
66119;DHT22;52912;48.564;9.302;2023-04-06T07:54:25;6.81;61.15
66119;DHT22;52912;48.564;9.302;2023-04-06T07:56:50;7.18;62.57
66119;DHT22;52912;48.564;9.302;2023-04-06T07:59:16;7.11;61.87
66119;DHT22;52912;48.564;9.302;2023-04-06T08:01:41;7.23;61.81
66119;DHT22;52912;48.564;9.302;2023-04-06T08:04:07;7.12;62.59
66119;DHT22;52912;48.564;9.302;2023-04-06T08:06:33;7.39;62.07
66119;DHT22;52912;48.564;9.302;2023-04-06T08:08:58;7.74;61.41
66119;DHT22;52912;48.564;9.302;2023-04-06T08:11:25;7.69;60.54
66119;DHT22;52912;48.564;9.302;2023-04-06T08:13:51;7.57;61.57
66119;DHT22;52912;48.564;9.302;2023-04-06T08:16:16;7.85;61.49
66119;DHT22;52912;48.564;9.302;2023-04-06T08:18:42;8.13;60.74
66119;DHT22;52912;48.564;9.302;2023-04-06T08:21:07;8.08;61.13
66119;DHT22;52912;48.564;9.302;2023-04-06T08:23:33;8.06;61.44
66119;DHT22;52912;48.564;9.302;2023-04-06T08:25:58;8.24;61.37
66119;DHT22;52912;48.564;9.302;2023-04-06T08:28:25;8.18;59.97
66119;DHT22;52912;48.564;9.302;2023-04-06T08:30:51;8.30;60.25
66119;DHT22;52912;48.564;9.302;2023-04-06T08:33:16;8.78;59.24
66119;DHT22;52912;48.564;9.302;2023-04-06T08:35:42;8.97;58.70
66119;DHT22;52912;48.564;9.302;2023-04-06T08:38:07;9.27;58.17
66119;DHT22;52912;48.564;9.302;2023-04-06T08:40:36;9.25;57.78
66119;DHT22;52912;48.564;9.302;2023-04-06T08:43:03;9.58;56.37
66119;DHT22;52912;48.564;9.302;2023-04-06T08:45:32;9.58;54.98
66119;DHT22;52912;48.564;9.302;2023-04-06T08:47:59;9.69;53.58
66119;DHT22;52912;48.564;9.302;2023-04-06T08:50:25;9.69;52.65
66119;DHT22;52912;48.564;9.302;2023-04-06T08:52:52;9.74;51.69
66119;DHT22;52912;48.564;9.302;2023-04-06T08:55:18;9.85;52.09
66119;DHT22;52912;48.564;9.302;2023-04-06T08:57:44;9.74;48.62
66119;DHT22;52912;48.564;9.302;2023-04-06T09:00:11;9.98;50.56
66119;DHT22;52912;48.564;9.302;2023-04-06T09:02:41;10.15;51.97
66119;DHT22;52912;48.564;9.302;2023-04-06T09:05:08;10.22;52.31
66119;DHT22;52912;48.564;9.302;2023-04-06T09:07:34;10.49;50.22
66119;DHT22;52912;48.564;9.302;2023-04-06T09:10:00;10.80;50.09
66119;DHT22;52912;48.564;9.302;2023-04-06T09:12:27;10.64;50.59
66119;DHT22;52912;48.564;9.302;2023-04-06T09:14:52;10.77;52.01
66119;DHT22;52912;48.564;9.302;2023-04-06T09:17:22;11.15;51.59
66119;DHT22;52912;48.564;9.302;2023-04-06T09:19:48;11.42;49.64
66119;DHT22;52912;48.564;9.302;2023-04-06T09:22:14;11.47;49.92
66119;DHT22;52912;48.564;9.302;2023-04-06T09:24:41;11.81;48.41
66119;DHT22;52912;48.564;9.302;2023-04-06T09:27:06;11.51;49.24
66119;DHT22;52912;48.564;9.302;2023-04-06T09:29:32;11.85;49.23
66119;DHT22;52912;48.564;9.302;2023-04-06T09:32:02;11.94;49.48
66119;DHT22;52912;48.564;9.302;2023-04-06T09:34:28;11.96;48.45
66119;DHT22;52912;48.564;9.302;2023-04-06T09:36:55;12.13;48.82
66119;DHT22;52912;48.564;9.302;2023-04-06T09:39:21;12.47;47.18
66119;DHT22;52912;48.564;9.302;2023-04-06T09:41:52;12.74;46.02
66119;DHT22;52912;48.564;9.302;2023-04-06T09:44:17;12.64;47.94
66119;DHT22;52912;48.564;9.302;2023-04-06T09:46:44;12.51;46.72
66119;DHT22;52912;48.564;9.302;2023-04-06T09:49:11;12.50;47.17
66119;DHT22;52912;48.564;9.302;2023-04-06T09:51:38;12.21;47.90
66119;DHT22;52912;48.564;9.302;2023-04-06T09:54:06;12.67;47.41
66119;DHT22;52912;48.564;9.302;2023-04-06T09:56:39;13.12;45.66
66119;DHT22;52912;48.564;9.302;2023-04-06T09:59:11;12.92;46.14
66119;DHT22;52912;48.564;9.302;2023-04-06T10:01:39;13.03;44.29
66119;DHT22;52912;48.564;9.302;2023-04-06T10:04:16;13.03;44.25
66119;DHT22;52912;48.564;9.302;2023-04-06T10:06:44;13.82;40.51
66119;DHT22;52912;48.564;9.302;2023-04-06T10:09:11;13.85;42.48
66119;DHT22;52912;48.564;9.302;2023-04-06T10:11:38;13.73;43.70
66119;DHT22;52912;48.564;9.302;2023-04-06T10:14:04;14.01;42.61
66119;DHT22;52912;48.564;9.302;2023-04-06T10:16:29;13.94;42.59
66119;DHT22;52912;48.564;9.302;2023-04-06T10:19:00;14.37;42.42
66119;DHT22;52912;48.564;9.302;2023-04-06T10:21:27;14.78;41.53
66119;DHT22;52912;48.564;9.302;2023-04-06T10:23:58;14.48;40.93
66119;DHT22;52912;48.564;9.302;2023-04-06T10:26:25;14.27;41.22
66119;DHT22;52912;48.564;9.302;2023-04-06T10:28:51;14.27;41.44
66119;DHT22;52912;48.564;9.302;2023-04-06T10:31:24;13.89;40.89
66119;DHT22;52912;48.564;9.302;2023-04-06T10:33:53;14.40;40.93
66119;DHT22;52912;48.564;9.302;2023-04-06T10:36:22;14.80;42.16
66119;DHT22;52912;48.564;9.302;2023-04-06T10:38:53;14.68;42.06
66119;DHT22;52912;48.564;9.302;2023-04-06T10:41:19;14.85;39.64
66119;DHT22;52912;48.564;9.302;2023-04-06T10:43:57;14.43;40.85
66119;DHT22;52912;48.564;9.302;2023-04-06T10:46:25;15.19;40.82
66119;DHT22;52912;48.564;9.302;2023-04-06T10:48:51;15.57;38.44
66119;DHT22;52912;48.564;9.302;2023-04-06T10:51:17;15.44;39.83
66119;DHT22;52912;48.564;9.302;2023-04-06T10:53:44;15.27;39.68
66119;DHT22;52912;48.564;9.302;2023-04-06T10:56:10;15.05;40.07
66119;DHT22;52912;48.564;9.302;2023-04-06T10:58:36;15.16;38.35
66119;DHT22;52912;48.564;9.302;2023-04-06T11:01:03;14.82;39.96
66119;DHT22;52912;48.564;9.302;2023-04-06T11:03:29;15.23;40.24
66119;DHT22;52912;48.564;9.302;2023-04-06T11:05:55;15.37;37.97
66119;DHT22;52912;48.564;9.302;2023-04-06T11:08:25;15.81;39.32
66119;DHT22;52912;48.564;9.302;2023-04-06T11:10:50;15.26;38.04
66119;DHT22;52912;48.564;9.302;2023-04-06T11:13:16;15.64;36.87
66119;DHT22;52912;48.564;9.302;2023-04-06T11:15:42;15.84;36.07
66119;DHT22;52912;48.564;9.302;2023-04-06T11:18:09;15.84;36.43
66119;DHT22;52912;48.564;9.302;2023-04-06T11:20:35;16.13;38.18
66119;DHT22;52912;48.564;9.302;2023-04-06T11:23:01;16.40;37.57
66119;DHT22;52912;48.564;9.302;2023-04-06T11:25:26;16.46;38.31
66119;DHT22;52912;48.564;9.302;2023-04-06T11:27:52;16.91;38.64
66119;DHT22;52912;48.564;9.302;2023-04-06T11:30:18;16.69;35.98
66119;DHT22;52912;48.564;9.302;2023-04-06T11:32:44;16.17;37.08
66119;DHT22;52912;48.564;9.302;2023-04-06T11:35:21;15.98;39.44
66119;DHT22;52912;48.564;9.302;2023-04-06T11:37:47;15.89;39.72
66119;DHT22;52912;48.564;9.302;2023-04-06T11:40:13;16.12;38.07
66119;DHT22;52912;48.564;9.302;2023-04-06T11:42:39;16.61;38.36
66119;DHT22;52912;48.564;9.302;2023-04-06T11:45:07;16.43;36.85
66119;DHT22;52912;48.564;9.302;2023-04-06T11:47:35;16.94;36.97
66119;DHT22;52912;48.564;9.302;2023-04-06T11:50:06;17.24;36.81
66119;DHT22;52912;48.564;9.302;2023-04-06T11:52:33;16.94;35.70
66119;DHT22;52912;48.564;9.302;2023-04-06T11:55:10;16.58;35.99
66119;DHT22;52912;48.564;9.302;2023-04-06T11:57:36;16.79;35.72
66119;DHT22;52912;48.564;9.302;2023-04-06T12:00:02;17.08;34.90
66119;DHT22;52912;48.564;9.302;2023-04-06T12:02:27;17.43;34.61
66119;DHT22;52912;48.564;9.302;2023-04-06T12:04:53;17.18;35.35
66119;DHT22;52912;48.564;9.302;2023-04-06T12:07:19;17.09;32.67
66119;DHT22;52912;48.564;9.302;2023-04-06T12:09:45;17.15;34.06
66119;DHT22;52912;48.564;9.302;2023-04-06T12:12:14;16.24;34.84
66119;DHT22;52912;48.564;9.302;2023-04-06T12:14:39;16.98;33.47
66119;DHT22;52912;48.564;9.302;2023-04-06T12:17:05;17.23;32.93
66119;DHT22;52912;48.564;9.302;2023-04-06T12:19:30;17.77;32.83
66119;DHT22;52912;48.564;9.302;2023-04-06T12:21:56;17.61;31.87
66119;DHT22;52912;48.564;9.302;2023-04-06T12:24:28;17.67;35.56
66119;DHT22;52912;48.564;9.302;2023-04-06T12:26:55;18.39;33.37
66119;DHT22;52912;48.564;9.302;2023-04-06T12:29:20;18.47;32.31
66119;DHT22;52912;48.564;9.302;2023-04-06T12:31:46;17.89;32.46
66119;DHT22;52912;48.564;9.302;2023-04-06T12:34:20;17.79;31.91
66119;DHT22;52912;48.564;9.302;2023-04-06T12:37:12;18.32;31.07
66119;DHT22;52912;48.564;9.302;2023-04-06T12:52:22;18.78;33.44
66119;DHT22;52912;48.564;9.302;2023-04-06T12:54:48;18.72;32.23
66119;DHT22;52912;48.564;9.302;2023-04-06T12:57:19;18.50;32.36
66119;DHT22;52912;48.564;9.302;2023-04-06T13:00:24;18.30;32.10
66119;DHT22;52912;48.564;9.302;2023-04-06T13:03:02;18.22;32.35
66119;DHT22;52912;48.564;9.302;2023-04-06T13:05:28;17.84;32.28
66119;DHT22;52912;48.564;9.302;2023-04-06T13:08:07;17.91;32.87
66119;DHT22;52912;48.564;9.302;2023-04-06T13:10:47;18.87;30.69
66119;DHT22;52912;48.564;9.302;2023-04-06T13:13:22;18.88;32.05
66119;DHT22;52912;48.564;9.302;2023-04-06T13:16:15;18.36;31.42
66119;DHT22;52912;48.564;9.302;2023-04-06T13:19:22;18.63;29.87
66119;DHT22;52912;48.564;9.302;2023-04-06T13:21:52;18.78;29.62
66119;DHT22;52912;48.564;9.302;2023-04-06T13:24:23;17.88;31.28
66119;DHT22;52912;48.564;9.302;2023-04-06T13:26:56;17.31;30.96
66119;DHT22;52912;48.564;9.302;2023-04-06T13:29:21;17.51;30.82
66119;DHT22;52912;48.564;9.302;2023-04-06T13:31:48;18.12;28.69
66119;DHT22;52912;48.564;9.302;2023-04-06T13:34:14;18.91;28.46
66119;DHT22;52912;48.564;9.302;2023-04-06T13:36:39;18.92;29.55
66119;DHT22;52912;48.564;9.302;2023-04-06T13:39:05;18.91;30.39
66119;DHT22;52912;48.564;9.302;2023-04-06T13:41:30;18.65;30.23
66119;DHT22;52912;48.564;9.302;2023-04-06T13:43:56;19.23;29.38
66119;DHT22;52912;48.564;9.302;2023-04-06T13:46:21;18.81;27.52
66119;DHT22;52912;48.564;9.302;2023-04-06T13:48:48;18.19;29.60
66119;DHT22;52912;48.564;9.302;2023-04-06T13:51:14;17.85;31.81
66119;DHT22;52912;48.564;9.302;2023-04-06T13:53:40;16.85;30.36
66119;DHT22;52912;48.564;9.302;2023-04-06T13:56:06;17.12;30.37
66119;DHT22;52912;48.564;9.302;2023-04-06T13:58:32;17.40;30.14
66119;DHT22;52912;48.564;9.302;2023-04-06T14:01:02;17.09;30.36
66119;DHT22;52912;48.564;9.302;2023-04-06T14:03:27;17.26;29.64
66119;DHT22;52912;48.564;9.302;2023-04-06T14:05:54;16.79;29.53
66119;DHT22;52912;48.564;9.302;2023-04-06T14:08:19;16.51;30.02
66119;DHT22;52912;48.564;9.302;2023-04-06T14:10:45;16.71;29.93
66119;DHT22;52912;48.564;9.302;2023-04-06T14:13:10;16.30;30.61
66119;DHT22;52912;48.564;9.302;2023-04-06T14:15:36;16.26;30.78
66119;DHT22;52912;48.564;9.302;2023-04-06T14:18:01;16.23;30.75
66119;DHT22;52912;48.564;9.302;2023-04-06T14:20:27;16.44;30.66
66119;DHT22;52912;48.564;9.302;2023-04-06T14:22:54;16.49;31.12
66119;DHT22;52912;48.564;9.302;2023-04-06T14:25:19;16.67;30.63
66119;DHT22;52912;48.564;9.302;2023-04-06T14:27:44;16.92;30.86
66119;DHT22;52912;48.564;9.302;2023-04-06T14:30:11;16.91;30.95
66119;DHT22;52912;48.564;9.302;2023-04-06T14:32:36;16.75;31.52
66119;DHT22;52912;48.564;9.302;2023-04-06T14:35:02;16.85;31.18
66119;DHT22;52912;48.564;9.302;2023-04-06T14:37:28;16.74;31.77
66119;DHT22;52912;48.564;9.302;2023-04-06T14:39:55;16.68;31.29
66119;DHT22;52912;48.564;9.302;2023-04-06T14:42:20;16.33;31.75
66119;DHT22;52912;48.564;9.302;2023-04-06T14:44:46;16.08;31.55
66119;DHT22;52912;48.564;9.302;2023-04-06T14:47:11;16.13;33.82
66119;DHT22;52912;48.564;9.302;2023-04-06T14:49:37;16.49;34.59
66119;DHT22;52912;48.564;9.302;2023-04-06T14:52:02;16.36;33.85
66119;DHT22;52912;48.564;9.302;2023-04-06T14:54:28;16.72;32.05
66119;DHT22;52912;48.564;9.302;2023-04-06T14:56:55;16.72;34.23
66119;DHT22;52912;48.564;9.302;2023-04-06T14:59:20;16.75;32.47
66119;DHT22;52912;48.564;9.302;2023-04-06T15:01:46;16.33;32.58
66119;DHT22;52912;48.564;9.302;2023-04-06T15:04:11;16.20;32.09
66119;DHT22;52912;48.564;9.302;2023-04-06T15:06:37;16.46;32.27
66119;DHT22;52912;48.564;9.302;2023-04-06T15:09:02;16.75;32.70
66119;DHT22;52912;48.564;9.302;2023-04-06T15:11:28;16.81;32.79
66119;DHT22;52912;48.564;9.302;2023-04-06T15:13:55;16.72;32.69
66119;DHT22;52912;48.564;9.302;2023-04-06T15:16:20;16.36;33.17
66119;DHT22;52912;48.564;9.302;2023-04-06T15:18:46;16.22;34.25
66119;DHT22;52912;48.564;9.302;2023-04-06T15:21:11;15.98;34.79
66119;DHT22;52912;48.564;9.302;2023-04-06T15:23:36;16.09;35.23
66119;DHT22;52912;48.564;9.302;2023-04-06T15:26:02;16.04;35.68
66119;DHT22;52912;48.564;9.302;2023-04-06T15:28:27;15.74;36.81
66119;DHT22;52912;48.564;9.302;2023-04-06T15:30:55;15.81;36.19
66119;DHT22;52912;48.564;9.302;2023-04-06T15:33:20;15.81;35.56
66119;DHT22;52912;48.564;9.302;2023-04-06T15:35:46;15.87;35.75
66119;DHT22;52912;48.564;9.302;2023-04-06T15:38:11;15.85;36.83
66119;DHT22;52912;48.564;9.302;2023-04-06T15:40:43;15.96;36.77
66119;DHT22;52912;48.564;9.302;2023-04-06T15:43:08;15.87;36.94
66119;DHT22;52912;48.564;9.302;2023-04-06T15:45:33;15.72;35.83